sensor_id;sensor_type;location;lat;lon;timestamp;temperature;humidity
15296;DHT22;7749;49.964;7.890;2023-04-15T00:02:42;7.30;1.00
15296;DHT22;7749;49.964;7.890;2023-04-15T00:05:31;7.30;1.00
15296;DHT22;7749;49.964;7.890;2023-04-15T00:08:14;7.10;99.90
15296;DHT22;7749;49.964;7.890;2023-04-15T00:10:57;7.10;1.00
15296;DHT22;7749;49.964;7.890;2023-04-15T00:13:44;7.20;99.90
15296;DHT22;7749;49.964;7.890;2023-04-15T00:16:27;7.30;99.90
15296;DHT22;7749;49.964;7.890;2023-04-15T00:19:10;7.30;99.90
15296;DHT22;7749;49.964;7.890;2023-04-15T00:21:54;7.20;1.00
15296;DHT22;7749;49.964;7.890;2023-04-15T00:24:37;7.10;1.00
15296;DHT22;7749;49.964;7.890;2023-04-15T00:27:20;7.30;1.00
15296;DHT22;7749;49.964;7.890;2023-04-15T00:30:04;7.20;99.90
15296;DHT22;7749;49.964;7.890;2023-04-15T00:32:48;7.00;1.00
15296;DHT22;7749;49.964;7.890;2023-04-15T00:35:32;6.90;99.90
15296;DHT22;7749;49.964;7.890;2023-04-15T00:38:15;6.90;23.10
15296;DHT22;7749;49.964;7.890;2023-04-15T00:40:57;6.60;21.10
15296;DHT22;7749;49.964;7.890;2023-04-15T00:43:41;6.50;99.90
15296;DHT22;7749;49.964;7.890;2023-04-15T00:46:25;6.50;99.90
15296;DHT22;7749;49.964;7.890;2023-04-15T00:49:08;6.50;99.90
15296;DHT22;7749;49.964;7.890;2023-04-15T00:51:51;6.40;99.90
15296;DHT22;7749;49.964;7.890;2023-04-15T00:54:34;6.40;1.00
15296;DHT22;7749;49.964;7.890;2023-04-15T00:57:18;6.50;1.00
15296;DHT22;7749;49.964;7.890;2023-04-15T01:00:01;6.60;1.00
15296;DHT22;7749;49.964;7.890;2023-04-15T01:02:45;6.60;1.00
15296;DHT22;7749;49.964;7.890;2023-04-15T01:05:29;6.60;1.00
15296;DHT22;7749;49.964;7.890;2023-04-15T01:08:12;6.60;1.00
15296;DHT22;7749;49.964;7.890;2023-04-15T01:10:57;6.60;1.00
15296;DHT22;7749;49.964;7.890;2023-04-15T01:13:43;6.70;1.00
15296;DHT22;7749;49.964;7.890;2023-04-15T01:16:26;6.70;99.90
15296;DHT22;7749;49.964;7.890;2023-04-15T01:19:10;6.50;1.00
15296;DHT22;7749;49.964;7.890;2023-04-15T01:21:53;6.50;1.00
15296;DHT22;7749;49.964;7.890;2023-04-15T01:24:36;6.50;1.00
15296;DHT22;7749;49.964;7.890;2023-04-15T01:27:20;6.60;99.90
15296;DHT22;7749;49.964;7.890;2023-04-15T01:30:05;6.60;99.90
15296;DHT22;7749;49.964;7.890;2023-04-15T01:32:49;6.50;99.90
15296;DHT22;7749;49.964;7.890;2023-04-15T01:35:33;6.50;99.90
15296;DHT22;7749;49.964;7.890;2023-04-15T01:38:24;6.50;1.00
15296;DHT22;7749;49.964;7.890;2023-04-15T01:41:10;6.50;1.00
15296;DHT22;7749;49.964;7.890;2023-04-15T01:43:53;6.60;1.00
15296;DHT22;7749;49.964;7.890;2023-04-15T01:46:42;6.50;1.00
15296;DHT22;7749;49.964;7.890;2023-04-15T01:49:33;6.60;1.00
15296;DHT22;7749;49.964;7.890;2023-04-15T01:52:53;6.60;1.00
15296;DHT22;7749;49.964;7.890;2023-04-15T01:56:30;6.50;1.00
15296;DHT22;7749;49.964;7.890;2023-04-15T01:59:33;6.30;96.40
15296;DHT22;7749;49.964;7.890;2023-04-15T02:02:39;6.20;99.90
15296;DHT22;7749;49.964;7.890;2023-04-15T02:05:23;6.10;99.90
15296;DHT22;7749;49.964;7.890;2023-04-15T02:08:06;6.10;99.90
15296;DHT22;7749;49.964;7.890;2023-04-15T02:10:49;6.00;99.90
15296;DHT22;7749;49.964;7.890;2023-04-15T02:13:33;6.00;99.90
15296;DHT22;7749;49.964;7.890;2023-04-15T02:16:17;6.00;99.90
15296;DHT22;7749;49.964;7.890;2023-04-15T02:19:00;6.00;99.90
15296;DHT22;7749;49.964;7.890;2023-04-15T02:21:43;6.00;1.00
15296;DHT22;7749;49.964;7.890;2023-04-15T02:24:27;6.00;1.00
15296;DHT22;7749;49.964;7.890;2023-04-15T02:27:10;6.00;99.90
15296;DHT22;7749;49.964;7.890;2023-04-15T02:29:57;5.80;1.00
15296;DHT22;7749;49.964;7.890;2023-04-15T02:32:41;5.60;1.00
15296;DHT22;7749;49.964;7.890;2023-04-15T02:35:25;5.40;1.00
15296;DHT22;7749;49.964;7.890;2023-04-15T02:38:08;5.30;1.00
15296;DHT22;7749;49.964;7.890;2023-04-15T02:40:51;5.30;1.00
15296;DHT22;7749;49.964;7.890;2023-04-15T02:43:34;5.10;1.00
15296;DHT22;7749;49.964;7.890;2023-04-15T02:46:16;5.10;1.00
15296;DHT22;7749;49.964;7.890;2023-04-15T02:48:58;5.10;1.00
15296;DHT22;7749;49.964;7.890;2023-04-15T02:51:41;5.00;1.00
15296;DHT22;7749;49.964;7.890;2023-04-15T02:54:25;5.10;1.00
15296;DHT22;7749;49.964;7.890;2023-04-15T02:57:10;5.10;1.00
15296;DHT22;7749;49.964;7.890;2023-04-15T02:59:54;5.10;1.00
15296;DHT22;7749;49.964;7.890;2023-04-15T03:02:37;5.00;1.00
15296;DHT22;7749;49.964;7.890;2023-04-15T03:05:20;5.10;1.00
15296;DHT22;7749;49.964;7.890;2023-04-15T03:08:05;5.00;1.00
15296;DHT22;7749;49.964;7.890;2023-04-15T03:10:48;4.90;1.00
15296;DHT22;7749;49.964;7.890;2023-04-15T03:13:32;4.90;1.00
15296;DHT22;7749;49.964;7.890;2023-04-15T03:16:15;5.00;1.00
15296;DHT22;7749;49.964;7.890;2023-04-15T03:18:58;5.10;1.00
15296;DHT22;7749;49.964;7.890;2023-04-15T03:21:40;5.00;1.00
15296;DHT22;7749;49.964;7.890;2023-04-15T03:24:22;4.80;1.00
15296;DHT22;7749;49.964;7.890;2023-04-15T03:27:05;4.70;2.70
15296;DHT22;7749;49.964;7.890;2023-04-15T03:29:48;4.60;21.40
15296;DHT22;7749;49.964;7.890;2023-04-15T03:32:31;4.60;17.80
15296;DHT22;7749;49.964;7.890;2023-04-15T03:35:13;4.60;32.70
15296;DHT22;7749;49.964;7.890;2023-04-15T03:37:56;4.60;46.70
15296;DHT22;7749;49.964;7.890;2023-04-15T03:40:39;4.50;55.70
15296;DHT22;7749;49.964;7.890;2023-04-15T03:43:22;4.50;71.50
15296;DHT22;7749;49.964;7.890;2023-04-15T03:46:04;4.60;76.80
15296;DHT22;7749;49.964;7.890;2023-04-15T03:48:47;4.50;83.60
15296;DHT22;7749;49.964;7.890;2023-04-15T03:51:29;4.50;82.10
15296;DHT22;7749;49.964;7.890;2023-04-15T03:54:12;4.40;76.80
15296;DHT22;7749;49.964;7.890;2023-04-15T03:56:56;4.40;73.70
15296;DHT22;7749;49.964;7.890;2023-04-15T03:59:39;4.30;97.20
15296;DHT22;7749;49.964;7.890;2023-04-15T04:02:21;4.30;99.90
15296;DHT22;7749;49.964;7.890;2023-04-15T04:05:03;4.30;95.90
15296;DHT22;7749;49.964;7.890;2023-04-15T04:07:46;4.30;99.30
15296;DHT22;7749;49.964;7.890;2023-04-15T04:10:52;4.30;99.90
15296;DHT22;7749;49.964;7.890;2023-04-15T04:13:34;4.30;96.10
15296;DHT22;7749;49.964;7.890;2023-04-15T04:16:17;4.20;93.60
15296;DHT22;7749;49.964;7.890;2023-04-15T04:19:17;4.30;87.40
15296;DHT22;7749;49.964;7.890;2023-04-15T04:22:08;4.30;78.70
15296;DHT22;7749;49.964;7.890;2023-04-15T04:25:00;4.40;67.70
15296;DHT22;7749;49.964;7.890;2023-04-15T04:27:53;4.40;45.30
15296;DHT22;7749;49.964;7.890;2023-04-15T04:31:01;4.50;30.90
15296;DHT22;7749;49.964;7.890;2023-04-15T04:33:43;4.50;29.50
15296;DHT22;7749;49.964;7.890;2023-04-15T04:36:25;4.40;58.20
15296;DHT22;7749;49.964;7.890;2023-04-15T04:39:08;4.40;69.80
15296;DHT22;7749;49.964;7.890;2023-04-15T04:41:50;4.40;81.50
15296;DHT22;7749;49.964;7.890;2023-04-15T04:44:33;4.30;93.60
15296;DHT22;7749;49.964;7.890;2023-04-15T04:47:15;4.30;98.00
15296;DHT22;7749;49.964;7.890;2023-04-15T04:49:57;4.40;99.90
15296;DHT22;7749;49.964;7.890;2023-04-15T04:52:40;4.40;99.90
15296;DHT22;7749;49.964;7.890;2023-04-15T04:55:22;4.20;99.90
15296;DHT22;7749;49.964;7.890;2023-04-15T04:58:04;4.30;99.90
15296;DHT22;7749;49.964;7.890;2023-04-15T05:00:47;4.30;99.90
15296;DHT22;7749;49.964;7.890;2023-04-15T05:03:29;4.40;99.90
15296;DHT22;7749;49.964;7.890;2023-04-15T05:06:12;4.50;91.40
15296;DHT22;7749;49.964;7.890;2023-04-15T05:08:54;4.50;58.00
15296;DHT22;7749;49.964;7.890;2023-04-15T05:11:37;4.50;57.90
15296;DHT22;7749;49.964;7.890;2023-04-15T05:14:19;4.50;53.70
15296;DHT22;7749;49.964;7.890;2023-04-15T05:17:02;4.50;54.00
15296;DHT22;7749;49.964;7.890;2023-04-15T05:19:44;4.40;73.60
15296;DHT22;7749;49.964;7.890;2023-04-15T05:22:26;4.30;73.20
15296;DHT22;7749;49.964;7.890;2023-04-15T05:25:09;4.40;71.20
15296;DHT22;7749;49.964;7.890;2023-04-15T05:27:51;4.40;80.60
15296;DHT22;7749;49.964;7.890;2023-04-15T05:30:34;4.50;64.10
15296;DHT22;7749;49.964;7.890;2023-04-15T05:33:17;4.50;37.90
15296;DHT22;7749;49.964;7.890;2023-04-15T05:36:00;4.60;17.20
15296;DHT22;7749;49.964;7.890;2023-04-15T05:38:43;4.70;3.10
15296;DHT22;7749;49.964;7.890;2023-04-15T05:41:26;4.70;2.50
15296;DHT22;7749;49.964;7.890;2023-04-15T05:44:09;4.90;1.00
15296;DHT22;7749;49.964;7.890;2023-04-15T05:46:59;4.80;1.00
15296;DHT22;7749;49.964;7.890;2023-04-15T05:49:45;4.90;1.00
15296;DHT22;7749;49.964;7.890;2023-04-15T05:52:28;5.00;1.00
15296;DHT22;7749;49.964;7.890;2023-04-15T05:55:14;5.10;1.00
15296;DHT22;7749;49.964;7.890;2023-04-15T05:57:57;4.90;1.00
15296;DHT22;7749;49.964;7.890;2023-04-15T06:00:40;5.00;10.60
15296;DHT22;7749;49.964;7.890;2023-04-15T06:03:26;5.20;1.00
15296;DHT22;7749;49.964;7.890;2023-04-15T06:06:09;5.60;1.00
15296;DHT22;7749;49.964;7.890;2023-04-15T06:08:55;5.80;1.00
15296;DHT22;7749;49.964;7.890;2023-04-15T06:11:39;5.90;1.00
15296;DHT22;7749;49.964;7.890;2023-04-15T06:14:25;5.90;1.00
15296;DHT22;7749;49.964;7.890;2023-04-15T06:17:17;5.90;1.00
15296;DHT22;7749;49.964;7.890;2023-04-15T06:20:04;5.90;1.00
15296;DHT22;7749;49.964;7.890;2023-04-15T06:22:59;6.00;1.00
15296;DHT22;7749;49.964;7.890;2023-04-15T06:25:43;6.40;1.00
15296;DHT22;7749;49.964;7.890;2023-04-15T06:28:26;6.80;99.90
15296;DHT22;7749;49.964;7.890;2023-04-15T06:31:09;7.10;1.00
15296;DHT22;7749;49.964;7.890;2023-04-15T06:33:52;6.90;1.00
15296;DHT22;7749;49.964;7.890;2023-04-15T06:36:41;7.10;99.90
15296;DHT22;7749;49.964;7.890;2023-04-15T06:39:24;7.10;99.90
15296;DHT22;7749;49.964;7.890;2023-04-15T06:42:08;7.40;6.70
15296;DHT22;7749;49.964;7.890;2023-04-15T06:44:57;7.50;99.90
15296;DHT22;7749;49.964;7.890;2023-04-15T06:47:40;7.70;99.90
15296;DHT22;7749;49.964;7.890;2023-04-15T06:50:23;7.80;1.00
15296;DHT22;7749;49.964;7.890;2023-04-15T06:53:07;7.50;1.00
15296;DHT22;7749;49.964;7.890;2023-04-15T06:55:49;7.20;99.90
15296;DHT22;7749;49.964;7.890;2023-04-15T06:58:32;7.20;1.00
15296;DHT22;7749;49.964;7.890;2023-04-15T07:01:18;7.30;1.00
15296;DHT22;7749;49.964;7.890;2023-04-15T07:04:02;7.40;1.00
15296;DHT22;7749;49.964;7.890;2023-04-15T07:06:45;7.50;99.90
15296;DHT22;7749;49.964;7.890;2023-04-15T07:09:28;7.50;61.80
15296;DHT22;7749;49.964;7.890;2023-04-15T07:12:15;7.60;1.00
15296;DHT22;7749;49.964;7.890;2023-04-15T07:15:01;7.60;99.90
15296;DHT22;7749;49.964;7.890;2023-04-15T07:17:47;7.80;99.90
15296;DHT22;7749;49.964;7.890;2023-04-15T07:20:33;8.00;99.90
15296;DHT22;7749;49.964;7.890;2023-04-15T07:23:19;8.20;1.00
15296;DHT22;7749;49.964;7.890;2023-04-15T07:26:05;8.30;1.00
15296;DHT22;7749;49.964;7.890;2023-04-15T07:28:55;8.30;99.90
15296;DHT22;7749;49.964;7.890;2023-04-15T07:31:39;8.50;1.00
15296;DHT22;7749;49.964;7.890;2023-04-15T07:34:24;8.20;1.00
15296;DHT22;7749;49.964;7.890;2023-04-15T07:37:07;8.30;99.90
15296;DHT22;7749;49.964;7.890;2023-04-15T07:39:50;8.40;99.90
15296;DHT22;7749;49.964;7.890;2023-04-15T07:42:38;8.50;99.90
15296;DHT22;7749;49.964;7.890;2023-04-15T07:45:21;8.60;99.90
15296;DHT22;7749;49.964;7.890;2023-04-15T07:48:05;8.70;99.90
15296;DHT22;7749;49.964;7.890;2023-04-15T07:50:49;8.70;1.00
15296;DHT22;7749;49.964;7.890;2023-04-15T07:53:32;8.80;1.00
15296;DHT22;7749;49.964;7.890;2023-04-15T07:56:15;9.00;1.00
15296;DHT22;7749;49.964;7.890;2023-04-15T07:58:58;9.20;1.00
15296;DHT22;7749;49.964;7.890;2023-04-15T08:01:43;9.60;99.90
15296;DHT22;7749;49.964;7.890;2023-04-15T08:04:26;10.00;1.00
15296;DHT22;7749;49.964;7.890;2023-04-15T08:07:10;10.00;99.90
15296;DHT22;7749;49.964;7.890;2023-04-15T08:09:53;10.30;53.40
15296;DHT22;7749;49.964;7.890;2023-04-15T08:12:37;10.60;1.00
15296;DHT22;7749;49.964;7.890;2023-04-15T08:15:23;10.70;1.00
15296;DHT22;7749;49.964;7.890;2023-04-15T08:18:06;10.90;99.90
15296;DHT22;7749;49.964;7.890;2023-04-15T08:20:58;11.20;99.90
15296;DHT22;7749;49.964;7.890;2023-04-15T08:23:46;11.20;99.90
15296;DHT22;7749;49.964;7.890;2023-04-15T08:26:29;11.10;99.90
15296;DHT22;7749;49.964;7.890;2023-04-15T08:29:12;11.20;99.90
15296;DHT22;7749;49.964;7.890;2023-04-15T08:31:55;11.40;99.90
15296;DHT22;7749;49.964;7.890;2023-04-15T08:34:38;11.70;1.00
15296;DHT22;7749;49.964;7.890;2023-04-15T08:37:21;12.20;1.00
15296;DHT22;7749;49.964;7.890;2023-04-15T08:40:11;12.40;1.00
15296;DHT22;7749;49.964;7.890;2023-04-15T08:42:57;12.20;1.00
15296;DHT22;7749;49.964;7.890;2023-04-15T08:45:41;12.40;1.00
15296;DHT22;7749;49.964;7.890;2023-04-15T08:48:28;12.70;1.00
15296;DHT22;7749;49.964;7.890;2023-04-15T08:51:16;12.70;1.00
15296;DHT22;7749;49.964;7.890;2023-04-15T08:54:01;13.00;1.00
15296;DHT22;7749;49.964;7.890;2023-04-15T08:56:44;13.20;1.00
15296;DHT22;7749;49.964;7.890;2023-04-15T08:59:29;13.20;99.90
15296;DHT22;7749;49.964;7.890;2023-04-15T09:02:13;13.30;99.90
15296;DHT22;7749;49.964;7.890;2023-04-15T09:04:57;13.50;99.90
15296;DHT22;7749;49.964;7.890;2023-04-15T09:07:40;13.50;99.90
15296;DHT22;7749;49.964;7.890;2023-04-15T09:10:23;13.80;99.90
15296;DHT22;7749;49.964;7.890;2023-04-15T09:13:18;13.90;99.90
15296;DHT22;7749;49.964;7.890;2023-04-15T09:16:03;14.10;99.90
15296;DHT22;7749;49.964;7.890;2023-04-15T09:18:47;14.30;99.90
15296;DHT22;7749;49.964;7.890;2023-04-15T09:21:34;14.40;65.00
15296;DHT22;7749;49.964;7.890;2023-04-15T09:24:17;14.40;32.10
15296;DHT22;7749;49.964;7.890;2023-04-15T09:27:00;14.50;1.00
15296;DHT22;7749;49.964;7.890;2023-04-15T09:29:50;15.00;1.00
15296;DHT22;7749;49.964;7.890;2023-04-15T09:35:36;15.00;1.00
15296;DHT22;7749;49.964;7.890;2023-04-15T09:38:19;15.20;1.00
15296;DHT22;7749;49.964;7.890;2023-04-15T09:41:02;15.10;1.00
15296;DHT22;7749;49.964;7.890;2023-04-15T09:43:48;15.20;1.00
15296;DHT22;7749;49.964;7.890;2023-04-15T09:46:42;15.10;1.00
15296;DHT22;7749;49.964;7.890;2023-04-15T09:49:28;15.20;1.00
15296;DHT22;7749;49.964;7.890;2023-04-15T09:52:13;15.40;1.00
15296;DHT22;7749;49.964;7.890;2023-04-15T09:54:58;15.00;1.00
15296;DHT22;7749;49.964;7.890;2023-04-15T09:57:42;15.30;1.00
15296;DHT22;7749;49.964;7.890;2023-04-15T10:00:29;15.70;1.00
15296;DHT22;7749;49.964;7.890;2023-04-15T10:03:14;15.80;1.00
15296;DHT22;7749;49.964;7.890;2023-04-15T10:06:01;15.90;1.00
15296;DHT22;7749;49.964;7.890;2023-04-15T10:08:45;16.20;1.00
15296;DHT22;7749;49.964;7.890;2023-04-15T10:11:29;16.20;1.00
15296;DHT22;7749;49.964;7.890;2023-04-15T10:14:13;16.30;1.00
15296;DHT22;7749;49.964;7.890;2023-04-15T10:17:04;16.50;1.00
15296;DHT22;7749;49.964;7.890;2023-04-15T10:19:47;16.30;1.00
15296;DHT22;7749;49.964;7.890;2023-04-15T10:22:32;16.70;1.00
15296;DHT22;7749;49.964;7.890;2023-04-15T10:25:15;16.60;1.00
15296;DHT22;7749;49.964;7.890;2023-04-15T10:27:59;16.20;1.00
15296;DHT22;7749;49.964;7.890;2023-04-15T10:30:55;16.10;1.00
15296;DHT22;7749;49.964;7.890;2023-04-15T10:33:39;16.70;1.00
15296;DHT22;7749;49.964;7.890;2023-04-15T10:36:23;16.60;1.00
15296;DHT22;7749;49.964;7.890;2023-04-15T10:39:38;17.00;1.00
15296;DHT22;7749;49.964;7.890;2023-04-15T10:42:24;16.90;1.00
15296;DHT22;7749;49.964;7.890;2023-04-15T10:45:18;16.80;1.00
15296;DHT22;7749;49.964;7.890;2023-04-15T10:48:03;16.80;1.00
15296;DHT22;7749;49.964;7.890;2023-04-15T10:50:56;16.90;1.00
15296;DHT22;7749;49.964;7.890;2023-04-15T10:53:41;16.90;1.00
15296;DHT22;7749;49.964;7.890;2023-04-15T10:56:24;17.20;1.00
15296;DHT22;7749;49.964;7.890;2023-04-15T10:59:08;17.20;1.00
15296;DHT22;7749;49.964;7.890;2023-04-15T11:04:57;17.00;1.00
15296;DHT22;7749;49.964;7.890;2023-04-15T11:15:55;20.00;1.00
15296;DHT22;7749;49.964;7.890;2023-04-15T11:18:39;20.40;1.00
15296;DHT22;7749;49.964;7.890;2023-04-15T11:21:24;20.80;1.00
15296;DHT22;7749;49.964;7.890;2023-04-15T11:24:30;21.30;99.90
15296;DHT22;7749;49.964;7.890;2023-04-15T11:27:25;20.90;99.90
15296;DHT22;7749;49.964;7.890;2023-04-15T11:30:20;20.10;99.90
15296;DHT22;7749;49.964;7.890;2023-04-15T11:33:06;19.00;99.90
15296;DHT22;7749;49.964;7.890;2023-04-15T11:35:53;18.40;99.90
15296;DHT22;7749;49.964;7.890;2023-04-15T11:38:37;18.50;99.90
15296;DHT22;7749;49.964;7.890;2023-04-15T11:41:23;18.60;99.90
15296;DHT22;7749;49.964;7.890;2023-04-15T11:44:16;17.70;99.90
15296;DHT22;7749;49.964;7.890;2023-04-15T11:46:59;17.60;99.90
15296;DHT22;7749;49.964;7.890;2023-04-15T11:49:42;17.30;99.90
15296;DHT22;7749;49.964;7.890;2023-04-15T11:52:25;16.90;99.90
15296;DHT22;7749;49.964;7.890;2023-04-15T11:55:08;16.30;99.90
15296;DHT22;7749;49.964;7.890;2023-04-15T12:00:57;16.80;99.90
15296;DHT22;7749;49.964;7.890;2023-04-15T12:03:56;16.80;99.90
15296;DHT22;7749;49.964;7.890;2023-04-15T12:06:40;17.40;99.90
15296;DHT22;7749;49.964;7.890;2023-04-15T12:09:24;18.50;99.90
15296;DHT22;7749;49.964;7.890;2023-04-15T12:12:07;18.60;99.90
15296;DHT22;7749;49.964;7.890;2023-04-15T12:14:55;18.40;99.90
15296;DHT22;7749;49.964;7.890;2023-04-15T12:17:39;17.40;99.90
15296;DHT22;7749;49.964;7.890;2023-04-15T12:20:26;17.00;99.90
15296;DHT22;7749;49.964;7.890;2023-04-15T12:23:10;17.00;99.90
15296;DHT22;7749;49.964;7.890;2023-04-15T12:25:53;17.00;99.90
15296;DHT22;7749;49.964;7.890;2023-04-15T12:28:37;17.20;99.90
15296;DHT22;7749;49.964;7.890;2023-04-15T12:31:23;17.50;99.90
15296;DHT22;7749;49.964;7.890;2023-04-15T12:34:07;17.50;99.90
15296;DHT22;7749;49.964;7.890;2023-04-15T12:36:50;17.70;99.90
15296;DHT22;7749;49.964;7.890;2023-04-15T12:39:38;17.20;99.90
15296;DHT22;7749;49.964;7.890;2023-04-15T12:42:22;17.10;99.90
15296;DHT22;7749;49.964;7.890;2023-04-15T12:45:09;17.20;99.90
15296;DHT22;7749;49.964;7.890;2023-04-15T12:47:52;17.40;99.90
15296;DHT22;7749;49.964;7.890;2023-04-15T12:50:35;17.40;99.90
15296;DHT22;7749;49.964;7.890;2023-04-15T12:53:20;17.20;99.90
15296;DHT22;7749;49.964;7.890;2023-04-15T12:56:03;17.30;99.90
15296;DHT22;7749;49.964;7.890;2023-04-15T12:58:47;17.10;99.90
15296;DHT22;7749;49.964;7.890;2023-04-15T13:01:31;16.80;99.90
15296;DHT22;7749;49.964;7.890;2023-04-15T13:04:14;16.40;99.90
15296;DHT22;7749;49.964;7.890;2023-04-15T13:06:57;16.00;1.00
15296;DHT22;7749;49.964;7.890;2023-04-15T13:09:40;16.00;1.00
15296;DHT22;7749;49.964;7.890;2023-04-15T13:12:24;15.60;1.00
15296;DHT22;7749;49.964;7.890;2023-04-15T13:15:08;15.60;1.00
15296;DHT22;7749;49.964;7.890;2023-04-15T13:17:53;15.60;1.00
15296;DHT22;7749;49.964;7.890;2023-04-15T13:20:37;15.70;1.00
15296;DHT22;7749;49.964;7.890;2023-04-15T13:23:20;15.60;1.00
15296;DHT22;7749;49.964;7.890;2023-04-15T13:26:03;15.80;1.00
15296;DHT22;7749;49.964;7.890;2023-04-15T13:28:46;15.80;1.00
15296;DHT22;7749;49.964;7.890;2023-04-15T13:31:29;15.50;1.00
15296;DHT22;7749;49.964;7.890;2023-04-15T13:34:14;15.20;1.00
15296;DHT22;7749;49.964;7.890;2023-04-15T13:36:58;15.00;1.00
15296;DHT22;7749;49.964;7.890;2023-04-15T13:39:41;15.30;1.00
15296;DHT22;7749;49.964;7.890;2023-04-15T13:42:24;15.20;1.00
15296;DHT22;7749;49.964;7.890;2023-04-15T13:45:08;15.40;1.00
15296;DHT22;7749;49.964;7.890;2023-04-15T13:47:52;15.60;1.00
15296;DHT22;7749;49.964;7.890;2023-04-15T13:50:35;15.80;1.00
15296;DHT22;7749;49.964;7.890;2023-04-15T13:53:18;15.80;1.00
15296;DHT22;7749;49.964;7.890;2023-04-15T13:56:02;15.60;1.00
15296;DHT22;7749;49.964;7.890;2023-04-15T13:58:45;14.90;1.00
15296;DHT22;7749;49.964;7.890;2023-04-15T14:01:29;14.90;1.00
15296;DHT22;7749;49.964;7.890;2023-04-15T14:04:15;14.70;1.00
15296;DHT22;7749;49.964;7.890;2023-04-15T14:06:58;15.00;1.00
15296;DHT22;7749;49.964;7.890;2023-04-15T14:09:42;14.70;1.00
15296;DHT22;7749;49.964;7.890;2023-04-15T14:12:10;14.60;1.00
15296;DHT22;7749;49.964;7.890;2023-04-15T14:14:38;14.60;99.90
15296;DHT22;7749;49.964;7.890;2023-04-15T14:17:06;14.80;99.90
15296;DHT22;7749;49.964;7.890;2023-04-15T14:19:34;14.90;99.90
15296;DHT22;7749;49.964;7.890;2023-04-15T14:22:04;14.60;99.90
15296;DHT22;7749;49.964;7.890;2023-04-15T14:24:32;14.60;99.90
15296;DHT22;7749;49.964;7.890;2023-04-15T14:27:00;14.50;1.00
15296;DHT22;7749;49.964;7.890;2023-04-15T14:29:28;14.40;1.00
15296;DHT22;7749;49.964;7.890;2023-04-15T14:31:56;14.40;99.90
15296;DHT22;7749;49.964;7.890;2023-04-15T14:34:38;14.30;1.00
15296;DHT22;7749;49.964;7.890;2023-04-15T14:37:06;14.00;99.90
15296;DHT22;7749;49.964;7.890;2023-04-15T14:39:33;14.00;99.90
15296;DHT22;7749;49.964;7.890;2023-04-15T14:42:01;13.60;1.00
15296;DHT22;7749;49.964;7.890;2023-04-15T14:44:32;13.70;1.00
15296;DHT22;7749;49.964;7.890;2023-04-15T14:46:59;13.60;59.80
15296;DHT22;7749;49.964;7.890;2023-04-15T14:49:27;13.40;1.00
15296;DHT22;7749;49.964;7.890;2023-04-15T14:51:55;13.30;1.00
15296;DHT22;7749;49.964;7.890;2023-04-15T14:54:24;13.00;1.00
15296;DHT22;7749;49.964;7.890;2023-04-15T14:56:52;12.80;1.00
15296;DHT22;7749;49.964;7.890;2023-04-15T14:59:20;12.60;99.90
15296;DHT22;7749;49.964;7.890;2023-04-15T15:01:47;12.40;1.00
15296;DHT22;7749;49.964;7.890;2023-04-15T15:04:15;12.50;1.00
15296;DHT22;7749;49.964;7.890;2023-04-15T15:06:43;12.50;1.00
15296;DHT22;7749;49.964;7.890;2023-04-15T15:09:12;12.20;98.00
15296;DHT22;7749;49.964;7.890;2023-04-15T15:11:39;12.10;99.90
15296;DHT22;7749;49.964;7.890;2023-04-15T15:14:07;12.10;1.00
15296;DHT22;7749;49.964;7.890;2023-04-15T15:16:36;12.10;1.00
15296;DHT22;7749;49.964;7.890;2023-04-15T15:19:04;12.20;26.40
15296;DHT22;7749;49.964;7.890;2023-04-15T15:21:31;12.10;99.90
15296;DHT22;7749;49.964;7.890;2023-04-15T15:23:59;11.90;99.90
15296;DHT22;7749;49.964;7.890;2023-04-15T15:26:27;11.90;99.90
15296;DHT22;7749;49.964;7.890;2023-04-15T15:28:55;11.90;1.00
15296;DHT22;7749;49.964;7.890;2023-04-15T15:31:22;11.80;99.90
15296;DHT22;7749;49.964;7.890;2023-04-15T15:33:50;11.80;99.90
15296;DHT22;7749;49.964;7.890;2023-04-15T15:36:19;11.90;99.90
15296;DHT22;7749;49.964;7.890;2023-04-15T15:38:49;11.90;99.90
15296;DHT22;7749;49.964;7.890;2023-04-15T15:41:18;11.80;99.90
15296;DHT22;7749;49.964;7.890;2023-04-15T15:43:45;11.90;99.90
15296;DHT22;7749;49.964;7.890;2023-04-15T15:46:13;11.90;99.90
15296;DHT22;7749;49.964;7.890;2023-04-15T15:48:41;11.80;1.00
15296;DHT22;7749;49.964;7.890;2023-04-15T15:51:09;11.90;1.00
15296;DHT22;7749;49.964;7.890;2023-04-15T15:53:37;11.80;1.00
15296;DHT22;7749;49.964;7.890;2023-04-15T15:56:06;11.60;1.00
15296;DHT22;7749;49.964;7.890;2023-04-15T15:58:34;11.60;1.00
15296;DHT22;7749;49.964;7.890;2023-04-15T16:01:02;11.60;1.00
15296;DHT22;7749;49.964;7.890;2023-04-15T16:03:29;11.60;99.90
15296;DHT22;7749;49.964;7.890;2023-04-15T16:05:58;11.60;99.90
15296;DHT22;7749;49.964;7.890;2023-04-15T16:08:25;11.50;99.90
15296;DHT22;7749;49.964;7.890;2023-04-15T16:10:53;11.50;1.00
15296;DHT22;7749;49.964;7.890;2023-04-15T16:13:21;11.50;99.90
15296;DHT22;7749;49.964;7.890;2023-04-15T16:15:49;11.50;99.90
15296;DHT22;7749;49.964;7.890;2023-04-15T16:18:17;11.40;99.90
15296;DHT22;7749;49.964;7.890;2023-04-15T16:20:45;11.40;1.00
15296;DHT22;7749;49.964;7.890;2023-04-15T16:23:15;11.50;1.00
15296;DHT22;7749;49.964;7.890;2023-04-15T16:25:43;11.40;1.00
15296;DHT22;7749;49.964;7.890;2023-04-15T16:28:11;11.30;1.00
15296;DHT22;7749;49.964;7.890;2023-04-15T16:30:52;11.20;1.00
15296;DHT22;7749;49.964;7.890;2023-04-15T16:33:25;11.20;1.00
15296;DHT22;7749;49.964;7.890;2023-04-15T16:35:52;11.10;1.00
15296;DHT22;7749;49.964;7.890;2023-04-15T16:38:20;11.20;1.00
15296;DHT22;7749;49.964;7.890;2023-04-15T16:40:48;11.30;1.00
15296;DHT22;7749;49.964;7.890;2023-04-15T16:43:15;11.00;1.00
15296;DHT22;7749;49.964;7.890;2023-04-15T16:45:43;10.90;1.00
15296;DHT22;7749;49.964;7.890;2023-04-15T16:48:11;10.90;1.00
15296;DHT22;7749;49.964;7.890;2023-04-15T16:50:42;11.00;1.00
15296;DHT22;7749;49.964;7.890;2023-04-15T16:53:10;10.90;1.00
15296;DHT22;7749;49.964;7.890;2023-04-15T16:55:38;10.90;1.00
15296;DHT22;7749;49.964;7.890;2023-04-15T16:58:06;10.80;1.00
15296;DHT22;7749;49.964;7.890;2023-04-15T17:00:35;10.60;1.00
15296;DHT22;7749;49.964;7.890;2023-04-15T17:03:04;10.70;1.00
15296;DHT22;7749;49.964;7.890;2023-04-15T17:05:32;10.60;1.00
15296;DHT22;7749;49.964;7.890;2023-04-15T17:08:00;10.70;1.00
15296;DHT22;7749;49.964;7.890;2023-04-15T17:10:27;10.60;1.00
15296;DHT22;7749;49.964;7.890;2023-04-15T17:12:57;10.60;37.40
15296;DHT22;7749;49.964;7.890;2023-04-15T17:15:25;10.50;76.30
15296;DHT22;7749;49.964;7.890;2023-04-15T17:17:53;10.40;99.10
15296;DHT22;7749;49.964;7.890;2023-04-15T17:20:21;10.40;66.30
15296;DHT22;7749;49.964;7.890;2023-04-15T17:22:49;10.40;46.00
15296;DHT22;7749;49.964;7.890;2023-04-15T17:25:16;10.40;66.70
15296;DHT22;7749;49.964;7.890;2023-04-15T17:27:44;10.30;62.50
15296;DHT22;7749;49.964;7.890;2023-04-15T17:30:12;10.30;50.40
15296;DHT22;7749;49.964;7.890;2023-04-15T17:32:39;10.30;58.80
15296;DHT22;7749;49.964;7.890;2023-04-15T17:35:07;10.40;47.80
15296;DHT22;7749;49.964;7.890;2023-04-15T17:37:35;10.30;38.10
15296;DHT22;7749;49.964;7.890;2023-04-15T17:40:03;10.30;44.70
15296;DHT22;7749;49.964;7.890;2023-04-15T17:42:34;10.30;33.20
15296;DHT22;7749;49.964;7.890;2023-04-15T17:45:02;10.40;36.60
15296;DHT22;7749;49.964;7.890;2023-04-15T17:47:30;10.40;21.80
15296;DHT22;7749;49.964;7.890;2023-04-15T17:49:58;10.40;34.30
15296;DHT22;7749;49.964;7.890;2023-04-15T17:52:26;10.30;35.80